Redig, South Dakota
Current Conditions -  °F | °C
As of 11:55 AM on Thursday 30 Oct 2014 (Local Time) from KSPF Reporting Station
Clear Clear  
Wind Chill: 52°   Ceiling: Unl
Heat Index: 52°   Visibility: 10mi
Dew Point: 32°   Wind: 12mph
Humidity: 47%   Direction: 340°NNW
Pressure: 30.35"   Gusts: NA
Location:  45.27°N, 103.55°W
Report Text: KSPF 301755Z AUTO 34010KT 10SM CLR 11/00 A3035 RMK AO2
Loading
Personal Weather Stations






























Interactive Weather Map
Tropical Storm Tracking
New forecast layout! Learn more

10-Day Weather Forecast

Advertisements
Track Severe Weather on mobile